Washington, District of Columbia
Traffic Map
Current Weather Conditions
Washington, District of Columbia
Broken Clouds
Broken Clouds
25°
Feels Like: 26°
Wind Chill: 25° Ceiling: 25000
Heat Index: 26° Visibility: 10mi
Dew Point: 22° Wind: 3mph
Humidity: 84% Direction: 180° (S)
Pressure: 30.12in Gusts: 0mph
Raw Report DataKDCA 060452Z 18003KT 10SM FEW140 BKN250 25/22 A3012 RMK AO2 SLP199 T02500222 403060217
Traffic Incident Summary
Active as of:
Severity:
Category:
InformationThere was an issue retrieving the traffic information for this location. Please try a different location or try again shortly.
Advertisements
Track Severe Weather on mobile